Thompson, Canada
Current Conditions -  °F | °C
As of 11:00 AM on Sunday 21 Dec 2014 (Local Time) from CYTH Reporting Station
Light Snow Light Snow  
Wind Chill: 19°   Ceiling: 1100
Heat Index: 19°   Visibility: 5mi
Dew Point: 18°   Wind: 3mph
Humidity: 93%   Direction: 80°E
Pressure: 29.67"   Gusts: NA
Location:  55.74°N, 97.85°W
Report Text: CYTH 211700Z 08003KT 040V110 5SM -FZDZ -SN BR FEW004 SCT007 OVC011 M07/M08 A2967 RMK SF2SF2SC4 SLP067
Loading
Personal Weather Stations






























Interactive Weather Map New forecast layout! Learn more

10-Day Weather Forecast

Advertisements
Track Severe Weather on mobile